Terminal Aerodrome Forecast
Issued by NWS

Home | Current Version | Previous Version | Graphics & Text | Print | Product List | Glossary On
Versions: 1 2 3 4 5 6 7 8 9 10 11 12 13
000
FTUS43 KICT 102300
TAFCNU
TAF
KCNU 102324Z 1100/1124 15011KT P6SM FEW060
     FM111600 20014KT P6SM FEW050=

USA.gov is the U.S. government's official web portal to all federal, state and local government web resources and services.